createdAt,value
2018-08-24T00:01:25.471Z,35.63
2018-08-24T00:03:56.140Z,34.00
2018-08-24T00:06:26.752Z,34.79
2018-08-24T00:08:57.509Z,33.87
2018-08-24T00:11:28.220Z,34.03
2018-08-24T00:13:58.853Z,34.38
2018-08-24T00:16:34.461Z,34.45
2018-08-24T00:19:05.206Z,35.11
2018-08-24T00:21:36.014Z,36.14
2018-08-24T00:24:07.121Z,35.85
2018-08-24T00:26:37.936Z,35.85
2018-08-24T00:29:08.904Z,35.39
2018-08-24T00:31:40.212Z,35.46
2018-08-24T00:34:10.565Z,34.56
2018-08-24T00:36:41.286Z,34.45
2018-08-24T00:39:11.945Z,35.17
2018-08-24T00:41:42.795Z,34.43
2018-08-24T00:44:13.405Z,34.89
2018-08-24T00:46:45.005Z,34.98
2018-08-24T00:49:15.736Z,35.31
2018-08-24T00:51:46.601Z,36.71
2018-08-24T00:54:17.240Z,36.87
2018-08-24T00:56:48.402Z,35.93
2018-08-24T00:59:18.912Z,36.41
2018-08-24T01:01:49.749Z,37.06
2018-08-24T01:04:25.442Z,36.50
2018-08-24T01:06:56.385Z,35.84
2018-08-24T01:09:26.861Z,34.65
2018-08-24T01:12:02.750Z,35.32
2018-08-24T01:14:33.233Z,36.21
2018-08-24T01:17:08.915Z,36.70
2018-08-24T01:19:39.581Z,37.17
2018-08-24T01:22:10.168Z,37.80
2018-08-24T01:24:40.889Z,38.79
2018-08-24T01:27:11.881Z,37.79
2018-08-24T01:29:43.398Z,38.50
2018-08-24T01:32:15.173Z,38.73
2018-08-24T01:34:45.728Z,38.52
2018-08-24T01:37:16.712Z,38.04
2018-08-24T01:39:47.273Z,37.74
2018-08-24T01:42:18.288Z,38.06
2018-08-24T01:44:48.788Z,37.84
2018-08-24T01:47:19.457Z,37.55
2018-08-24T01:49:50.037Z,37.43
2018-08-24T01:52:20.836Z,37.82
2018-08-24T01:54:51.397Z,38.76
2018-08-24T01:57:22.260Z,37.51
2018-08-24T01:59:52.892Z,38.04
2018-08-24T02:02:23.709Z,37.36
2018-08-24T02:04:54.429Z,39.02
2018-08-24T02:07:25.340Z,39.61
2018-08-24T02:09:56.062Z,39.00
2018-08-24T02:12:31.593Z,39.72
2018-08-24T02:15:02.173Z,40.77
2018-08-24T02:17:37.773Z,43.37
2018-08-24T02:20:13.286Z,40.94
2018-08-24T02:22:44.174Z,41.47
2018-08-24T02:25:14.564Z,41.42
2018-08-24T02:27:45.301Z,41.72
2018-08-24T02:30:15.888Z,39.74
2018-08-24T02:32:46.720Z,41.48
2018-08-24T02:35:19.197Z,43.68
2018-08-24T02:37:51.852Z,42.43
2018-08-24T02:40:22.439Z,41.29
2018-08-24T02:42:53.641Z,42.95
2018-08-24T02:45:24.274Z,42.46
2018-08-24T02:47:55.070Z,42.75
2018-08-24T02:50:25.665Z,43.26
2018-08-24T02:52:56.501Z,42.97
2018-08-24T02:55:27.294Z,42.93
2018-08-24T02:57:57.824Z,43.07
2018-08-24T03:00:28.393Z,44.27
2018-08-24T03:02:59.236Z,44.50
2018-08-24T03:05:29.919Z,44.12
2018-08-24T03:08:00.629Z,44.22
2018-08-24T03:10:31.240Z,43.91
2018-08-24T03:13:01.917Z,42.91
2018-08-24T03:15:32.310Z,43.86
2018-08-24T03:18:03.185Z,43.68
2018-08-24T03:20:33.765Z,42.37
2018-08-24T03:23:04.328Z,43.17
2018-08-24T03:25:34.946Z,41.95
2018-08-24T03:28:05.824Z,43.43
2018-08-24T03:30:36.478Z,44.21
2018-08-24T03:33:07.414Z,43.23
2018-08-24T03:35:38.032Z,44.43
2018-08-24T03:38:08.844Z,43.95
2018-08-24T03:40:39.422Z,44.19
2018-08-24T03:43:10.628Z,43.48
2018-08-24T03:45:41.298Z,42.73
2018-08-24T03:48:12.323Z,42.42
2018-08-24T03:50:42.857Z,43.40
2018-08-24T03:53:13.663Z,43.18
2018-08-24T03:55:44.361Z,43.32
2018-08-24T03:58:15.265Z,43.47
2018-08-24T04:00:45.896Z,42.38
2018-08-24T04:03:16.872Z,42.27
2018-08-24T04:05:47.529Z,42.27
2018-08-24T04:08:18.061Z,40.41
2018-08-24T04:10:48.608Z,41.08
2018-08-24T04:13:19.444Z,42.21
2018-08-24T04:15:50.088Z,43.06
2018-08-24T04:18:20.909Z,42.49
2018-08-24T04:20:51.569Z,42.31
2018-08-24T04:23:22.385Z,41.41
2018-08-24T04:25:53.145Z,42.28
2018-08-24T04:28:23.802Z,41.76
2018-08-24T04:30:54.376Z,41.03
2018-08-24T04:33:25.053Z,41.74
2018-08-24T04:35:55.625Z,41.58
2018-08-24T04:38:26.793Z,39.89
2018-08-24T04:40:57.413Z,39.43
2018-08-24T04:43:27.981Z,41.06
2018-08-24T04:45:58.693Z,41.07
2018-08-24T04:48:29.731Z,39.00
2018-08-24T04:51:00.201Z,37.47
2018-08-24T04:53:31.081Z,36.04
2018-08-24T04:56:01.792Z,35.95
2018-08-24T04:58:32.729Z,37.29
2018-08-24T05:01:03.216Z,37.10
2018-08-24T05:03:33.944Z,37.86
2018-08-24T05:06:04.461Z,39.60
2018-08-24T05:08:35.153Z,38.72
2018-08-24T05:11:05.881Z,36.05
2018-08-24T05:13:36.524Z,34.02
2018-08-24T05:16:07.237Z,33.62
2018-08-24T05:18:37.985Z,35.26
2018-08-24T05:21:08.734Z,34.91
2018-08-24T05:23:39.536Z,34.44
2018-08-24T05:26:10.283Z,35.45
2018-08-24T05:28:41.261Z,35.33
2018-08-24T05:31:11.946Z,36.05
2018-08-24T05:33:42.628Z,35.67
2018-08-24T05:36:13.321Z,36.97
2018-08-24T05:38:44.113Z,37.96
2018-08-24T05:41:14.786Z,36.61
2018-08-24T05:43:45.580Z,36.58
2018-08-24T05:46:16.249Z,35.43
2018-08-24T05:48:46.847Z,34.95
2018-08-24T05:51:17.461Z,34.52
2018-08-24T05:53:48.268Z,34.32
2018-08-24T05:56:18.483Z,36.08
2018-08-24T05:58:48.828Z,34.75
2018-08-24T06:01:19.101Z,34.43
2018-08-24T06:03:49.578Z,35.30
2018-08-24T06:06:19.873Z,34.79
2018-08-24T06:08:55.196Z,35.72
2018-08-24T06:11:25.662Z,34.46
2018-08-24T06:13:56.324Z,32.72
2018-08-24T06:16:26.952Z,32.30
2018-08-24T06:18:57.819Z,32.78
2018-08-24T06:21:28.458Z,32.06
2018-08-24T06:23:59.176Z,31.48
2018-08-24T06:26:29.813Z,31.68
2018-08-24T06:29:00.498Z,29.66
2018-08-24T06:31:31.249Z,31.21
2018-08-24T06:34:02.133Z,29.44
2018-08-24T06:36:32.701Z,31.52
2018-08-24T06:39:03.709Z,29.43
2018-08-24T06:41:34.408Z,29.59
2018-08-24T06:44:05.326Z,29.56
2018-08-24T06:46:35.936Z,30.00
2018-08-24T06:49:06.813Z,30.93
2018-08-24T06:51:37.404Z,30.87
2018-08-24T06:54:08.504Z,30.82
2018-08-24T06:56:38.880Z,30.30
2018-08-24T06:59:09.875Z,30.94
2018-08-24T07:01:40.610Z,29.76
2018-08-24T07:04:11.549Z,30.09
2018-08-24T07:06:42.144Z,28.39
2018-08-24T07:09:13.305Z,29.01
2018-08-24T07:11:43.893Z,30.72
2018-08-24T07:14:14.689Z,28.46
2018-08-24T07:16:45.375Z,29.29
2018-08-24T07:19:16.193Z,29.45
2018-08-24T07:21:46.825Z,28.64
2018-08-24T07:24:17.533Z,27.90
2018-08-24T07:26:48.206Z,28.82
2018-08-24T07:29:19.251Z,28.72
2018-08-24T07:31:49.881Z,27.28
2018-08-24T07:34:21.109Z,26.75
2018-08-24T07:36:51.977Z,27.24
2018-08-24T07:39:22.700Z,28.40
2018-08-24T07:41:53.355Z,27.53
2018-08-24T07:44:24.238Z,27.19
2018-08-24T07:46:54.841Z,25.92
2018-08-24T07:49:26.126Z,26.23
2018-08-24T07:51:56.608Z,25.81
2018-08-24T07:54:27.205Z,23.67
2018-08-24T07:56:57.836Z,23.28
2018-08-24T07:59:29.796Z,23.43
2018-08-24T08:02:00.453Z,24.04
2018-08-24T08:04:31.301Z,23.76
2018-08-24T08:07:02.097Z,22.17
2018-08-24T08:09:33.042Z,22.50
2018-08-24T08:12:03.724Z,22.64
2018-08-24T08:14:34.509Z,21.68
2018-08-24T08:17:05.181Z,22.17
2018-08-24T08:19:35.870Z,21.86
2018-08-24T08:22:06.580Z,21.16
2018-08-24T08:24:37.407Z,20.85
2018-08-24T08:27:08.104Z,22.89
2018-08-24T08:29:43.865Z,22.71
2018-08-24T08:32:14.529Z,22.42
2018-08-24T08:34:51.242Z,21.85
2018-08-24T08:37:23.297Z,22.00
2018-08-24T08:39:57.964Z,22.99
2018-08-24T08:42:28.800Z,22.76
2018-08-24T08:45:00.289Z,21.65
2018-08-24T08:47:30.908Z,22.04
2018-08-24T08:50:01.824Z,22.04
2018-08-24T08:52:32.481Z,22.51
2018-08-24T08:55:03.541Z,22.24
2018-08-24T08:57:34.136Z,20.80
2018-08-24T09:00:04.969Z,20.75
2018-08-24T09:02:35.727Z,20.19
2018-08-24T09:05:06.604Z,20.31
2018-08-24T09:07:37.356Z,20.37
2018-08-24T09:10:07.993Z,18.08
2018-08-24T09:12:38.821Z,19.02
2018-08-24T09:15:09.854Z,18.49
2018-08-24T09:17:45.580Z,19.17
2018-08-24T09:20:21.252Z,19.80
2018-08-24T09:22:56.654Z,20.18
2018-08-24T09:25:32.172Z,20.41
2018-08-24T09:28:07.930Z,20.90
2018-08-24T09:30:42.172Z,21.77
2018-08-24T09:33:12.796Z,20.74
2018-08-24T09:35:43.714Z,21.09
2018-08-24T09:38:14.406Z,20.85
2018-08-24T09:40:50.299Z,20.76
2018-08-24T09:43:25.708Z,20.41
2018-08-24T09:45:56.314Z,20.42
2018-08-24T09:48:28.679Z,20.97
2018-08-24T09:51:04.506Z,22.43
2018-08-24T09:53:40.193Z,21.60
2018-08-24T09:56:11.142Z,21.64
2018-08-24T09:58:41.568Z,21.64
2018-08-24T10:02:18.829Z,19.37
2018-08-24T10:04:54.260Z,21.86
2018-08-24T10:07:28.656Z,19.81
2018-08-24T10:09:59.756Z,19.94
2018-08-24T10:12:34.653Z,18.71
2018-08-24T10:15:06.597Z,18.64
2018-08-24T10:17:37.541Z,18.20
2018-08-24T10:20:08.776Z,19.05
2018-08-24T10:22:39.582Z,19.51
2018-08-24T10:25:10.236Z,19.88
2018-08-24T10:27:41.174Z,19.07
2018-08-24T10:30:11.908Z,18.75
2018-08-24T10:32:42.890Z,18.38
2018-08-24T10:35:13.525Z,18.26
2018-08-24T10:37:44.358Z,17.87
2018-08-24T10:40:15.044Z,18.37
2018-08-24T10:42:45.614Z,19.08
2018-08-24T10:45:16.282Z,17.78
2018-08-24T10:47:47.376Z,17.79
2018-08-24T10:50:17.957Z,18.85
2018-08-24T10:52:48.677Z,17.96
2018-08-24T10:55:19.327Z,17.57
2018-08-24T10:57:50.242Z,17.51
2018-08-24T11:00:20.909Z,18.18
2018-08-24T11:02:51.854Z,17.38
2018-08-24T11:05:22.595Z,18.30
2018-08-24T11:07:53.354Z,19.64
2018-08-24T11:10:23.907Z,19.77
2018-08-24T11:12:54.717Z,20.21
2018-08-24T11:15:26.474Z,21.70
2018-08-24T11:18:04.521Z,21.89
2018-08-24T11:20:35.237Z,21.45
2018-08-24T11:23:07.086Z,20.39
2018-08-24T11:25:39.790Z,20.91
2018-08-24T11:28:11.765Z,19.38
2018-08-24T11:30:42.525Z,19.20
2018-08-24T11:33:13.290Z,19.68
2018-08-24T11:35:45.002Z,20.26
2018-08-24T11:38:16.034Z,18.96
2018-08-24T11:40:46.613Z,18.43
2018-08-24T11:43:17.472Z,19.12
2018-08-24T11:45:48.143Z,18.45
2018-08-24T11:48:19.340Z,17.27
2018-08-24T11:50:49.966Z,19.20
2018-08-24T11:53:20.910Z,18.40
2018-08-24T11:55:51.516Z,18.08
2018-08-24T11:58:22.496Z,18.05
2018-08-24T12:00:53.225Z,18.55
2018-08-24T12:03:24.216Z,16.48
2018-08-24T12:05:55.002Z,16.33
2018-08-24T12:08:26.024Z,19.17
2018-08-24T12:10:56.629Z,18.33
2018-08-24T12:13:27.225Z,18.65
2018-08-24T12:15:58.065Z,17.83
2018-08-24T12:18:29.146Z,17.03
2018-08-24T12:20:59.775Z,16.04
2018-08-24T12:23:30.661Z,16.99
2018-08-24T12:26:01.249Z,15.02
2018-08-24T12:28:32.117Z,16.53
2018-08-24T12:31:02.833Z,16.96
2018-08-24T12:33:33.537Z,17.19
2018-08-24T12:36:04.236Z,17.36
2018-08-24T12:38:35.041Z,17.89
2018-08-24T12:41:05.632Z,17.24
2018-08-24T12:43:38.283Z,17.66
2018-08-24T12:46:12.486Z,16.61
2018-08-24T12:48:44.047Z,17.59
2018-08-24T12:51:14.639Z,18.47
2018-08-24T12:53:45.814Z,17.99
2018-08-24T12:56:19.567Z,17.62
2018-08-24T12:58:51.542Z,16.86
2018-08-24T13:01:22.365Z,17.55
2018-08-24T13:03:53.413Z,16.17
2018-08-24T13:06:24.035Z,16.86
2018-08-24T13:08:55.125Z,16.99
2018-08-24T13:11:25.746Z,17.23
2018-08-24T13:13:56.634Z,15.32
2018-08-24T13:16:27.261Z,15.51
2018-08-24T13:18:57.913Z,16.20
2018-08-24T13:21:28.685Z,17.12
2018-08-24T13:23:59.571Z,16.06
2018-08-24T13:26:30.120Z,16.34
2018-08-24T13:29:00.968Z,16.52
2018-08-24T13:31:31.665Z,16.76
2018-08-24T13:34:02.601Z,14.36
2018-08-24T13:36:33.314Z,15.82
2018-08-24T13:39:04.979Z,15.42
2018-08-24T13:41:35.456Z,14.46
2018-08-24T13:44:06.354Z,16.48
2018-08-24T13:46:37.201Z,16.45
2018-08-24T13:49:08.456Z,15.55
2018-08-24T13:51:39.248Z,15.87
2018-08-24T13:54:10.433Z,15.71
2018-08-24T13:56:41.051Z,15.83
2018-08-24T13:59:11.765Z,16.49
2018-08-24T14:01:42.415Z,18.22
2018-08-24T14:04:13.221Z,17.84
2018-08-24T14:06:43.894Z,16.26
2018-08-24T14:09:14.457Z,17.08
2018-08-24T14:11:45.152Z,15.61
2018-08-24T14:14:16.141Z,17.67
2018-08-24T14:16:46.734Z,17.61
2018-08-24T14:19:17.578Z,16.43
2018-08-24T14:21:48.266Z,19.05
2018-08-24T14:24:18.961Z,18.43
2018-08-24T14:26:49.594Z,16.37
2018-08-24T14:29:20.515Z,17.52
2018-08-24T14:31:51.131Z,17.64
2018-08-24T14:34:21.809Z,15.87
2018-08-24T14:36:52.420Z,16.79
2018-08-24T14:39:23.174Z,16.32
2018-08-24T14:41:53.844Z,16.10
2018-08-24T14:44:24.599Z,16.73
2018-08-24T14:46:55.249Z,15.52
2018-08-24T14:49:26.404Z,15.02
2018-08-24T14:51:56.885Z,16.87
2018-08-24T14:54:27.708Z,17.14
2018-08-24T14:56:58.386Z,16.53
2018-08-24T14:59:29.309Z,15.63
2018-08-24T15:01:59.941Z,15.19
2018-08-24T15:04:30.823Z,16.61
2018-08-24T15:07:01.559Z,17.50
2018-08-24T15:09:32.297Z,16.19
2018-08-24T15:12:03.282Z,16.02
2018-08-24T15:14:34.269Z,16.30
2018-08-24T15:17:05.047Z,17.26
2018-08-24T15:19:35.745Z,16.80
2018-08-24T15:22:06.545Z,17.04
2018-08-24T15:24:37.271Z,18.94
2018-08-24T15:27:07.930Z,18.65
2018-08-24T15:29:38.661Z,17.76
2018-08-24T15:32:09.249Z,18.67
2018-08-24T15:34:40.045Z,18.21
2018-08-24T15:37:10.632Z,16.93
2018-08-24T15:39:41.433Z,17.24
2018-08-24T15:42:11.993Z,17.20
2018-08-24T15:44:42.980Z,17.24
2018-08-24T15:47:13.925Z,18.29
2018-08-24T15:49:44.769Z,19.01
2018-08-24T15:52:15.465Z,18.52
2018-08-24T15:54:46.396Z,19.61
2018-08-24T15:57:17.026Z,17.54
2018-08-24T15:59:47.749Z,17.28
2018-08-24T16:02:18.226Z,17.53
2018-08-24T16:04:49.021Z,17.52
2018-08-24T16:07:19.676Z,18.89
2018-08-24T16:09:50.362Z,18.36
2018-08-24T16:12:21.126Z,17.13
2018-08-24T16:14:52.154Z,19.37
2018-08-24T16:17:22.782Z,18.71
2018-08-24T16:19:53.525Z,19.01
2018-08-24T16:22:24.364Z,18.78
2018-08-24T16:24:55.339Z,20.21
2018-08-24T16:27:26.447Z,19.42
2018-08-24T16:29:58.404Z,20.38
2018-08-24T16:32:29.147Z,19.97
2018-08-24T16:35:00.105Z,20.03
2018-08-24T16:37:30.813Z,19.47
2018-08-24T16:40:01.613Z,20.02
2018-08-24T16:42:32.102Z,20.01
2018-08-24T16:45:03.238Z,20.03
2018-08-24T16:47:33.933Z,20.33
2018-08-24T16:50:04.742Z,20.48
2018-08-24T16:52:35.494Z,20.02
2018-08-24T16:55:06.302Z,19.72
2018-08-24T16:57:36.892Z,20.58
2018-08-24T17:00:09.030Z,22.83
2018-08-24T17:02:39.648Z,24.33
2018-08-24T17:05:10.282Z,25.10
2018-08-24T17:07:40.764Z,24.09
2018-08-24T17:10:11.466Z,23.52
2018-08-24T17:12:42.223Z,23.69
2018-08-24T17:15:13.132Z,22.80
2018-08-24T17:17:43.745Z,22.73
2018-08-24T17:20:14.476Z,22.34
2018-08-24T17:22:45.094Z,22.48
2018-08-24T17:25:15.764Z,23.32
2018-08-24T17:27:46.381Z,22.10
2018-08-24T17:30:17.394Z,22.44
2018-08-24T17:32:47.986Z,23.70
2018-08-24T17:35:18.961Z,23.95
2018-08-24T17:37:49.537Z,23.46
2018-08-24T17:40:20.205Z,22.67
2018-08-24T17:42:51.019Z,23.77
2018-08-24T17:45:22.091Z,23.35
2018-08-24T17:47:52.891Z,24.75
2018-08-24T17:50:24.011Z,24.48
2018-08-24T17:52:54.625Z,24.77
2018-08-24T17:55:25.529Z,23.42
2018-08-24T17:57:56.156Z,23.52
2018-08-24T18:00:26.981Z,23.91
2018-08-24T18:02:57.609Z,24.40
2018-08-24T18:05:28.427Z,24.42
2018-08-24T18:07:59.179Z,25.24
2018-08-24T18:10:30.168Z,25.29
2018-08-24T18:13:00.757Z,24.82
2018-08-24T18:15:31.892Z,24.28
2018-08-24T18:18:02.488Z,24.65
2018-08-24T18:20:33.263Z,25.98
2018-08-24T18:23:03.914Z,26.33
2018-08-24T18:25:34.776Z,27.15
2018-08-24T18:28:06.111Z,26.96
2018-08-24T18:30:37.052Z,25.65
2018-08-24T18:33:08.069Z,27.08
2018-08-24T18:35:39.040Z,26.45
2018-08-24T18:38:09.801Z,27.26
2018-08-24T18:40:40.804Z,27.88
2018-08-24T18:43:11.705Z,26.17
2018-08-24T18:45:42.562Z,26.38
2018-08-24T18:48:13.383Z,26.77
2018-08-24T18:50:44.384Z,26.27
2018-08-24T18:53:15.080Z,27.27
2018-08-24T18:55:45.885Z,26.27
2018-08-24T18:58:16.603Z,27.00
2018-08-24T19:00:47.634Z,27.47
2018-08-24T19:03:18.480Z,27.26
2018-08-24T19:05:49.550Z,27.25
2018-08-24T19:08:20.740Z,27.73
2018-08-24T19:10:56.869Z,27.50
2018-08-24T19:13:28.106Z,29.92
2018-08-24T19:15:59.358Z,30.36
2018-08-24T19:18:35.332Z,28.19
2018-08-24T19:21:12.089Z,29.23
2018-08-24T19:23:44.063Z,29.25
2018-08-24T19:26:15.152Z,28.85
2018-08-24T19:28:51.207Z,28.83
2018-08-24T19:31:22.363Z,28.95
2018-08-24T19:33:53.201Z,30.55
2018-08-24T19:36:24.176Z,30.41
2018-08-24T19:38:55.004Z,30.89
2018-08-24T19:41:31.134Z,29.71
2018-08-24T19:44:02.170Z,29.45
2018-08-24T19:46:33.248Z,29.55
2018-08-24T19:49:21.703Z,30.67
2018-08-24T19:51:52.913Z,29.93
2018-08-24T19:54:23.728Z,31.00
2018-08-24T19:56:54.871Z,31.45
2018-08-24T19:59:26.007Z,31.91
2018-08-24T20:01:57.243Z,31.20
2018-08-24T20:04:27.950Z,31.27
2018-08-24T20:07:03.845Z,31.10
2018-08-24T20:09:39.744Z,31.10
2018-08-24T20:12:12.133Z,32.05
2018-08-24T20:14:49.960Z,31.31
2018-08-24T20:17:37.821Z,31.59
2018-08-24T20:20:09.074Z,31.57
2018-08-24T20:22:40.299Z,30.88
2018-08-24T20:25:11.327Z,31.73
2018-08-24T20:27:43.037Z,32.19
2018-08-24T20:30:13.843Z,31.77
2018-08-24T20:32:45.068Z,32.05
2018-08-24T20:35:16.100Z,32.23
2018-08-24T20:37:47.425Z,32.18
2018-08-24T20:40:18.404Z,32.65
2018-08-24T20:42:49.523Z,33.11
2018-08-24T20:45:20.085Z,32.14
2018-08-24T20:47:51.187Z,33.18
2018-08-24T20:50:22.036Z,33.61
2018-08-24T20:52:52.798Z,33.66
2018-08-24T20:55:23.324Z,34.27
2018-08-24T20:57:54.729Z,34.35
2018-08-24T21:00:25.590Z,35.56
2018-08-24T21:02:56.666Z,35.29
2018-08-24T21:05:27.471Z,34.29
2018-08-24T21:08:02.035Z,34.81
2018-08-24T21:10:32.931Z,35.97
2018-08-24T21:13:04.008Z,37.52
2018-08-24T21:15:34.899Z,36.72
2018-08-24T21:18:05.798Z,37.54
2018-08-24T21:20:36.599Z,37.11
2018-08-24T21:23:07.875Z,38.07
2018-08-24T21:25:38.743Z,38.60
2018-08-24T21:28:09.736Z,38.55
2018-08-24T21:30:40.636Z,38.17
2018-08-24T21:33:11.661Z,37.95
2018-08-24T21:35:42.500Z,39.14
2018-08-24T21:38:13.703Z,39.15
2018-08-24T21:40:44.542Z,39.45
2018-08-24T21:43:15.671Z,38.69
2018-08-24T21:45:46.642Z,39.14
2018-08-24T21:48:17.902Z,38.85
2018-08-24T21:50:49.231Z,39.65
2018-08-24T21:53:20.460Z,39.04
2018-08-24T21:55:51.346Z,38.87
2018-08-24T21:58:22.323Z,39.56
2018-08-24T22:00:53.157Z,39.86
2018-08-24T22:03:24.198Z,38.76
2018-08-24T22:05:54.902Z,39.38
2018-08-24T22:08:26.029Z,39.88
2018-08-24T22:10:57.027Z,39.90
2018-08-24T22:13:28.226Z,39.46
2018-08-24T22:15:59.059Z,39.83
2018-08-24T22:18:29.984Z,40.74
2018-08-24T22:21:00.763Z,39.64
2018-08-24T22:23:31.746Z,39.38
2018-08-24T22:26:02.797Z,39.81
2018-08-24T22:28:34.021Z,41.30
2018-08-24T22:31:04.746Z,40.23
2018-08-24T22:33:35.336Z,39.74
2018-08-24T22:36:05.942Z,39.50
2018-08-24T22:38:37.084Z,39.23
2018-08-24T22:41:07.831Z,39.04
2018-08-24T22:43:40.181Z,38.70
2018-08-24T22:46:10.656Z,39.50
2018-08-24T22:48:41.343Z,38.51
2018-08-24T22:51:11.921Z,39.99
2018-08-24T22:53:42.904Z,40.90
2018-08-24T22:56:13.456Z,41.27
2018-08-24T22:58:44.289Z,41.95
2018-08-24T23:01:14.730Z,41.32
2018-08-24T23:03:45.719Z,41.88
2018-08-24T23:06:16.288Z,41.70
2018-08-24T23:08:47.039Z,42.35
2018-08-24T23:11:17.498Z,42.24
2018-08-24T23:13:48.360Z,41.53
2018-08-24T23:16:18.836Z,42.36
2018-08-24T23:18:49.600Z,42.65
2018-08-24T23:21:20.205Z,42.36
2018-08-24T23:23:50.800Z,42.66
2018-08-24T23:26:21.351Z,42.45
2018-08-24T23:28:52.349Z,42.17
2018-08-24T23:31:22.929Z,43.28
2018-08-24T23:33:53.538Z,42.48
2018-08-24T23:36:24.167Z,42.06
2018-08-24T23:38:54.956Z,42.20
2018-08-24T23:41:44.064Z,42.32
2018-08-24T23:44:14.870Z,41.56
2018-08-24T23:46:45.496Z,42.15
2018-08-24T23:49:16.261Z,42.34
2018-08-24T23:51:46.801Z,41.91
2018-08-24T23:54:17.632Z,42.22
2018-08-24T23:56:48.311Z,43.43
2018-08-24T23:59:18.985Z,44.35
